sensor_id;sensor_type;location;lat;lon;timestamp;pressure;altitude;pressure_sealevel;temperature;humidity
17230;BME280;8731;50.364;8.958;2022-08-04T00:00:07;99801.13;;;23.09;53.76
17230;BME280;8731;50.364;8.958;2022-08-04T00:04:36;99786.88;;;22.76;55.07
17230;BME280;8731;50.364;8.958;2022-08-04T00:09:07;99787.81;;;22.78;54.28
17230;BME280;8731;50.364;8.958;2022-08-04T00:13:37;99790.50;;;22.81;54.32
17230;BME280;8731;50.364;8.958;2022-08-04T00:18:03;99800.31;;;22.65;54.77
17230;BME280;8731;50.364;8.958;2022-08-04T00:22:30;99799.25;;;22.60;55.26
17230;BME280;8731;50.364;8.958;2022-08-04T00:26:54;99793.16;;;22.60;54.50
17230;BME280;8731;50.364;8.958;2022-08-04T00:31:18;99792.88;;;22.52;55.48
17230;BME280;8731;50.364;8.958;2022-08-04T00:35:43;99801.72;;;22.35;56.70
17230;BME280;8731;50.364;8.958;2022-08-04T00:40:21;99807.84;;;22.37;56.14
17230;BME280;8731;50.364;8.958;2022-08-04T00:45:01;99804.78;;;22.25;56.56
17230;BME280;8731;50.364;8.958;2022-08-04T00:49:59;99795.47;;;22.30;55.80
17230;BME280;8731;50.364;8.958;2022-08-04T00:54:33;99800.59;;;22.28;55.69
17230;BME280;8731;50.364;8.958;2022-08-04T00:59:09;99788.25;;;22.23;56.09
17230;BME280;8731;50.364;8.958;2022-08-04T01:04:00;99792.16;;;21.92;58.55
17230;BME280;8731;50.364;8.958;2022-08-04T01:08:40;99795.69;;;21.94;57.91
17230;BME280;8731;50.364;8.958;2022-08-04T01:13:28;99795.69;;;21.94;57.51
17230;BME280;8731;50.364;8.958;2022-08-04T01:18:07;99799.09;;;21.93;57.52
17230;BME280;8731;50.364;8.958;2022-08-04T01:22:59;99791.16;;;21.89;57.72
17230;BME280;8731;50.364;8.958;2022-08-04T01:27:53;99784.56;;;21.76;58.00
17230;BME280;8731;50.364;8.958;2022-08-04T01:32:35;99781.03;;;21.74;57.59
17230;BME280;8731;50.364;8.958;2022-08-04T01:37:16;99784.19;;;21.67;57.90
17230;BME280;8731;50.364;8.958;2022-08-04T01:41:44;99785.84;;;21.65;57.51
17230;BME280;8731;50.364;8.958;2022-08-04T01:46:09;99783.94;;;21.61;57.41
17230;BME280;8731;50.364;8.958;2022-08-04T01:50:35;99783.13;;;21.62;57.40
17230;BME280;8731;50.364;8.958;2022-08-04T01:55:00;99783.81;;;21.58;57.67
17230;BME280;8731;50.364;8.958;2022-08-04T01:59:27;99775.91;;;21.55;57.90
17230;BME280;8731;50.364;8.958;2022-08-04T02:03:52;99775.44;;;21.44;58.28
17230;BME280;8731;50.364;8.958;2022-08-04T02:08:20;99779.47;;;21.37;58.23
17230;BME280;8731;50.364;8.958;2022-08-04T02:13:09;99783.13;;;21.23;58.75
17230;BME280;8731;50.364;8.958;2022-08-04T02:17:50;99776.47;;;21.09;58.96
17230;BME280;8731;50.364;8.958;2022-08-04T02:22:21;99769.53;;;21.08;58.73
17230;BME280;8731;50.364;8.958;2022-08-04T02:26:48;99776.34;;;21.06;58.85
17230;BME280;8731;50.364;8.958;2022-08-04T02:31:18;99771.50;;;20.94;59.84
17230;BME280;8731;50.364;8.958;2022-08-04T02:35:53;99758.34;;;20.90;59.09
17230;BME280;8731;50.364;8.958;2022-08-04T02:40:23;99760.72;;;20.85;59.57
17230;BME280;8731;50.364;8.958;2022-08-04T02:44:50;99751.03;;;20.81;59.74
17230;BME280;8731;50.364;8.958;2022-08-04T02:49:14;99749.94;;;20.76;59.05
17230;BME280;8731;50.364;8.958;2022-08-04T02:53:40;99756.28;;;20.63;60.80
17230;BME280;8731;50.364;8.958;2022-08-04T02:58:04;99753.91;;;20.68;60.00
17230;BME280;8731;50.364;8.958;2022-08-04T03:02:35;99749.47;;;20.65;60.17
17230;BME280;8731;50.364;8.958;2022-08-04T03:07:33;99750.28;;;20.64;59.91
17230;BME280;8731;50.364;8.958;2022-08-04T03:12:38;99760.81;;;20.49;61.07
17230;BME280;8731;50.364;8.958;2022-08-04T03:17:54;99769.44;;;20.50;60.78
17230;BME280;8731;50.364;8.958;2022-08-04T03:22:54;99762.16;;;20.41;61.14
17230;BME280;8731;50.364;8.958;2022-08-04T03:28:20;99768.47;;;20.30;62.05
17230;BME280;8731;50.364;8.958;2022-08-04T03:33:23;99773.66;;;20.30;61.73
17230;BME280;8731;50.364;8.958;2022-08-04T03:38:16;99771.13;;;20.32;62.24
17230;BME280;8731;50.364;8.958;2022-08-04T03:43:36;99779.28;;;20.21;62.78
17230;BME280;8731;50.364;8.958;2022-08-04T03:48:52;99778.53;;;20.06;64.11
17230;BME280;8731;50.364;8.958;2022-08-04T03:53:38;99781.94;;;20.05;63.66
17230;BME280;8731;50.364;8.958;2022-08-04T03:58:55;99783.69;;;20.06;63.61
17230;BME280;8731;50.364;8.958;2022-08-04T04:04:02;99785.94;;;19.99;64.24
17230;BME280;8731;50.364;8.958;2022-08-04T04:09:02;99785.31;;;19.86;64.90
17230;BME280;8731;50.364;8.958;2022-08-04T04:13:54;99783.84;;;19.74;66.19
17230;BME280;8731;50.364;8.958;2022-08-04T04:18:47;99777.47;;;19.85;65.33
17230;BME280;8731;50.364;8.958;2022-08-04T04:23:34;99785.41;;;19.88;64.07
17230;BME280;8731;50.364;8.958;2022-08-04T04:28:28;99787.00;;;19.86;64.26
17230;BME280;8731;50.364;8.958;2022-08-04T04:33:20;99793.16;;;19.88;64.47
17230;BME280;8731;50.364;8.958;2022-08-04T04:38:06;99784.91;;;19.95;64.59
17230;BME280;8731;50.364;8.958;2022-08-04T04:47:54;99783.50;;;20.02;64.59
17230;BME280;8731;50.364;8.958;2022-08-04T04:52:25;99785.25;;;20.03;64.52
17230;BME280;8731;50.364;8.958;2022-08-04T04:57:02;99791.09;;;19.99;65.58
17230;BME280;8731;50.364;8.958;2022-08-04T05:01:58;99784.91;;;20.13;64.50
17230;BME280;8731;50.364;8.958;2022-08-04T05:06:52;99786.50;;;20.29;64.38
17230;BME280;8731;50.364;8.958;2022-08-04T05:11:49;99782.97;;;20.62;64.62
17230;BME280;8731;50.364;8.958;2022-08-04T05:16:38;99785.19;;;20.92;64.65
17230;BME280;8731;50.364;8.958;2022-08-04T05:21:15;99790.41;;;21.30;64.36
17230;BME280;8731;50.364;8.958;2022-08-04T05:25:59;99792.66;;;21.63;62.13
17230;BME280;8731;50.364;8.958;2022-08-04T05:30:26;99788.19;;;22.00;61.60
17230;BME280;8731;50.364;8.958;2022-08-04T05:34:54;99788.91;;;22.40;60.87
17230;BME280;8731;50.364;8.958;2022-08-04T05:39:26;99787.75;;;22.76;59.73
17230;BME280;8731;50.364;8.958;2022-08-04T05:43:51;99785.69;;;23.38;58.91
17230;BME280;8731;50.364;8.958;2022-08-04T05:48:15;99780.94;;;23.50;57.43
17230;BME280;8731;50.364;8.958;2022-08-04T05:52:39;99776.25;;;24.16;56.92
17230;BME280;8731;50.364;8.958;2022-08-04T05:57:04;99776.38;;;24.76;55.53
17230;BME280;8731;50.364;8.958;2022-08-04T06:01:28;99778.84;;;25.00;54.92
17230;BME280;8731;50.364;8.958;2022-08-04T06:05:53;99777.09;;;25.63;53.49
17230;BME280;8731;50.364;8.958;2022-08-04T06:10:17;99772.34;;;26.16;52.55
17230;BME280;8731;50.364;8.958;2022-08-04T06:14:42;99776.47;;;26.43;50.47
17230;BME280;8731;50.364;8.958;2022-08-04T06:19:07;99769.63;;;26.48;50.71
17230;BME280;8731;50.364;8.958;2022-08-04T06:23:36;99768.03;;;27.39;49.85
17230;BME280;8731;50.364;8.958;2022-08-04T06:28:04;99767.22;;;27.41;49.73
17230;BME280;8731;50.364;8.958;2022-08-04T06:32:28;99768.56;;;27.66;50.30
17230;BME280;8731;50.364;8.958;2022-08-04T06:36:57;99761.56;;;28.17;49.50
17230;BME280;8731;50.364;8.958;2022-08-04T06:41:21;99764.44;;;28.94;48.07
17230;BME280;8731;50.364;8.958;2022-08-04T06:45:44;99776.66;;;28.31;49.94
17230;BME280;8731;50.364;8.958;2022-08-04T06:50:10;99774.44;;;28.60;49.42
17230;BME280;8731;50.364;8.958;2022-08-04T06:54:33;99771.16;;;28.75;49.25
17230;BME280;8731;50.364;8.958;2022-08-04T06:58:58;99760.97;;;28.98;48.24
17230;BME280;8731;50.364;8.958;2022-08-04T07:03:21;99769.84;;;29.09;49.08
17230;BME280;8731;50.364;8.958;2022-08-04T07:07:44;99778.84;;;29.32;47.08
17230;BME280;8731;50.364;8.958;2022-08-04T07:12:08;99774.38;;;29.24;48.26
17230;BME280;8731;50.364;8.958;2022-08-04T07:16:33;99772.09;;;29.53;47.56
17230;BME280;8731;50.364;8.958;2022-08-04T07:20:56;99762.66;;;29.72;47.70
17230;BME280;8731;50.364;8.958;2022-08-04T07:25:19;99772.13;;;30.67;45.55
17230;BME280;8731;50.364;8.958;2022-08-04T07:29:42;99766.28;;;31.33;44.48
17230;BME280;8731;50.364;8.958;2022-08-04T07:34:06;99766.31;;;31.61;42.89
17230;BME280;8731;50.364;8.958;2022-08-04T07:38:29;99761.06;;;31.65;44.83
17230;BME280;8731;50.364;8.958;2022-08-04T07:42:51;99755.81;;;32.05;42.53
17230;BME280;8731;50.364;8.958;2022-08-04T07:47:14;99753.88;;;32.95;40.71
17230;BME280;8731;50.364;8.958;2022-08-04T07:51:38;99755.44;;;33.30;40.00
17230;BME280;8731;50.364;8.958;2022-08-04T07:56:01;99746.88;;;34.17;39.37
17230;BME280;8731;50.364;8.958;2022-08-04T08:00:24;99742.91;;;34.62;38.78
17230;BME280;8731;50.364;8.958;2022-08-04T08:04:46;99749.78;;;34.78;37.62
17230;BME280;8731;50.364;8.958;2022-08-04T08:09:12;99745.97;;;35.02;34.99
17230;BME280;8731;50.364;8.958;2022-08-04T08:13:36;99751.72;;;35.30;35.15
17230;BME280;8731;50.364;8.958;2022-08-04T08:17:59;99744.56;;;35.94;34.02
17230;BME280;8731;50.364;8.958;2022-08-04T08:22:21;99735.91;;;36.35;33.57
17230;BME280;8731;50.364;8.958;2022-08-04T08:26:45;99739.63;;;36.25;33.48
17230;BME280;8731;50.364;8.958;2022-08-04T08:31:07;99739.56;;;36.28;39.14
17230;BME280;8731;50.364;8.958;2022-08-04T08:35:34;99739.09;;;36.97;33.93
17230;BME280;8731;50.364;8.958;2022-08-04T08:40:20;99737.00;;;37.50;32.30
17230;BME280;8731;50.364;8.958;2022-08-04T08:45:14;99730.69;;;37.54;30.77
17230;BME280;8731;50.364;8.958;2022-08-04T08:50:09;99726.34;;;37.89;30.50
17230;BME280;8731;50.364;8.958;2022-08-04T08:55:15;99729.41;;;37.70;30.40
17230;BME280;8731;50.364;8.958;2022-08-04T08:59:54;99724.31;;;37.61;30.05
17230;BME280;8731;50.364;8.958;2022-08-04T09:04:51;99731.66;;;37.89;29.62
17230;BME280;8731;50.364;8.958;2022-08-04T09:09:42;99721.59;;;38.00;29.76
17230;BME280;8731;50.364;8.958;2022-08-04T09:14:16;99722.78;;;38.86;27.75
17230;BME280;8731;50.364;8.958;2022-08-04T09:18:46;99723.50;;;38.91;30.21
17230;BME280;8731;50.364;8.958;2022-08-04T09:23:19;99711.16;;;39.18;28.46
17230;BME280;8731;50.364;8.958;2022-08-04T09:27:50;99719.50;;;38.76;33.92
17230;BME280;8731;50.364;8.958;2022-08-04T09:32:22;99716.91;;;39.04;28.66
17230;BME280;8731;50.364;8.958;2022-08-04T09:37:03;99720.06;;;39.71;27.51
17230;BME280;8731;50.364;8.958;2022-08-04T09:41:39;99711.78;;;39.54;29.23
17230;BME280;8731;50.364;8.958;2022-08-04T09:46:12;99714.13;;;39.63;27.32
17230;BME280;8731;50.364;8.958;2022-08-04T09:50:39;99713.69;;;38.62;30.72
17230;BME280;8731;50.364;8.958;2022-08-04T09:55:10;99717.81;;;39.85;29.56
17230;BME280;8731;50.364;8.958;2022-08-04T09:59:42;99707.91;;;40.15;26.61
17230;BME280;8731;50.364;8.958;2022-08-04T10:04:13;99707.66;;;39.16;26.24
17230;BME280;8731;50.364;8.958;2022-08-04T10:08:59;99697.59;;;40.55;27.42
17230;BME280;8731;50.364;8.958;2022-08-04T10:13:47;99699.72;;;40.45;25.97
17230;BME280;8731;50.364;8.958;2022-08-04T10:18:31;99688.22;;;41.35;26.45
17230;BME280;8731;50.364;8.958;2022-08-04T10:23:11;99698.53;;;39.52;26.80
17230;BME280;8731;50.364;8.958;2022-08-04T10:27:42;99689.03;;;40.45;27.08
17230;BME280;8731;50.364;8.958;2022-08-04T10:32:13;99684.03;;;40.84;26.19
17230;BME280;8731;50.364;8.958;2022-08-04T10:36:50;99686.72;;;40.11;27.17
17230;BME280;8731;50.364;8.958;2022-08-04T10:41:24;99678.81;;;41.03;25.38
17230;BME280;8731;50.364;8.958;2022-08-04T10:45:57;99670.88;;;41.01;25.43
17230;BME280;8731;50.364;8.958;2022-08-04T10:50:27;99678.38;;;40.92;25.01
17230;BME280;8731;50.364;8.958;2022-08-04T10:54:54;99678.53;;;40.40;25.50
17230;BME280;8731;50.364;8.958;2022-08-04T10:59:27;99666.69;;;41.16;25.19
17230;BME280;8731;50.364;8.958;2022-08-04T11:03:56;99658.81;;;40.19;25.86
17230;BME280;8731;50.364;8.958;2022-08-04T11:08:25;99666.88;;;40.66;24.93
17230;BME280;8731;50.364;8.958;2022-08-04T11:12:54;99650.72;;;41.36;24.33
17230;BME280;8731;50.364;8.958;2022-08-04T11:17:23;99649.22;;;41.73;25.31
17230;BME280;8731;50.364;8.958;2022-08-04T11:21:54;99651.16;;;41.48;24.17
17230;BME280;8731;50.364;8.958;2022-08-04T11:26:23;99647.88;;;41.19;24.63
17230;BME280;8731;50.364;8.958;2022-08-04T11:30:56;99669.53;;;39.68;26.34
17230;BME280;8731;50.364;8.958;2022-08-04T11:35:26;99665.84;;;39.97;25.77
17230;BME280;8731;50.364;8.958;2022-08-04T11:39:59;99650.72;;;39.98;25.96
17230;BME280;8731;50.364;8.958;2022-08-04T11:44:30;99663.16;;;39.46;26.77
17230;BME280;8731;50.364;8.958;2022-08-04T11:49:00;99659.63;;;39.72;26.17
17230;BME280;8731;50.364;8.958;2022-08-04T11:53:27;99653.56;;;39.67;27.92
17230;BME280;8731;50.364;8.958;2022-08-04T11:57:51;99658.63;;;39.21;28.20
17230;BME280;8731;50.364;8.958;2022-08-04T12:07:37;99646.06;;;39.53;25.65
17230;BME280;8731;50.364;8.958;2022-08-04T12:12:12;99644.50;;;39.72;26.02
17230;BME280;8731;50.364;8.958;2022-08-04T12:16:49;99638.13;;;38.95;27.43
17230;BME280;8731;50.364;8.958;2022-08-04T12:21:24;99638.78;;;38.74;27.43
17230;BME280;8731;50.364;8.958;2022-08-04T12:25:55;99638.13;;;38.95;27.80
17230;BME280;8731;50.364;8.958;2022-08-04T12:30:21;99642.06;;;38.84;26.76
17230;BME280;8731;50.364;8.958;2022-08-04T12:34:50;99632.94;;;38.63;26.96
17230;BME280;8731;50.364;8.958;2022-08-04T12:39:21;99630.13;;;38.05;27.49
17230;BME280;8731;50.364;8.958;2022-08-04T12:43:47;99625.47;;;37.81;27.80
17230;BME280;8731;50.364;8.958;2022-08-04T12:48:11;99617.50;;;37.47;27.64
17230;BME280;8731;50.364;8.958;2022-08-04T12:52:41;99626.75;;;37.66;28.33
17230;BME280;8731;50.364;8.958;2022-08-04T12:57:10;99624.81;;;37.73;27.36
17230;BME280;8731;50.364;8.958;2022-08-04T13:01:36;99616.47;;;37.53;28.31
17230;BME280;8731;50.364;8.958;2022-08-04T13:06:00;99606.72;;;37.53;27.03
17230;BME280;8731;50.364;8.958;2022-08-04T13:10:23;99613.84;;;37.51;26.99
17230;BME280;8731;50.364;8.958;2022-08-04T13:14:50;99614.13;;;38.07;26.16
17230;BME280;8731;50.364;8.958;2022-08-04T13:19:19;99608.34;;;37.93;26.00
17230;BME280;8731;50.364;8.958;2022-08-04T13:23:43;99604.06;;;37.53;27.14
17230;BME280;8731;50.364;8.958;2022-08-04T13:28:12;99605.34;;;37.72;27.01
17230;BME280;8731;50.364;8.958;2022-08-04T13:32:41;99599.22;;;37.35;27.83
17230;BME280;8731;50.364;8.958;2022-08-04T13:37:05;99603.31;;;37.48;27.74
17230;BME280;8731;50.364;8.958;2022-08-04T13:41:29;99589.22;;;37.44;26.60
17230;BME280;8731;50.364;8.958;2022-08-04T13:45:58;99587.41;;;37.46;27.18
17230;BME280;8731;50.364;8.958;2022-08-04T13:50:26;99584.63;;;37.51;26.70
17230;BME280;8731;50.364;8.958;2022-08-04T13:54:49;99572.00;;;37.59;25.98
17230;BME280;8731;50.364;8.958;2022-08-04T13:59:15;99574.69;;;37.24;26.42
17230;BME280;8731;50.364;8.958;2022-08-04T14:03:44;99565.47;;;37.03;26.14
17230;BME280;8731;50.364;8.958;2022-08-04T14:08:19;99554.31;;;37.24;25.24
17230;BME280;8731;50.364;8.958;2022-08-04T14:12:48;99559.63;;;37.26;27.17
17230;BME280;8731;50.364;8.958;2022-08-04T14:17:14;99544.53;;;36.91;27.05
17230;BME280;8731;50.364;8.958;2022-08-04T14:21:37;99540.38;;;37.14;27.43
17230;BME280;8731;50.364;8.958;2022-08-04T14:26:12;99541.50;;;37.06;26.69
17230;BME280;8731;50.364;8.958;2022-08-04T14:30:36;99535.56;;;36.96;28.14
17230;BME280;8731;50.364;8.958;2022-08-04T14:35:09;99526.56;;;37.02;26.48
17230;BME280;8731;50.364;8.958;2022-08-04T14:39:35;99524.06;;;36.96;27.14
17230;BME280;8731;50.364;8.958;2022-08-04T14:44:02;99527.97;;;37.16;26.48
17230;BME280;8731;50.364;8.958;2022-08-04T14:48:25;99537.41;;;36.93;26.13
17230;BME280;8731;50.364;8.958;2022-08-04T14:52:47;99531.94;;;36.99;26.37
17230;BME280;8731;50.364;8.958;2022-08-04T14:57:14;99532.34;;;36.82;26.87
17230;BME280;8731;50.364;8.958;2022-08-04T15:01:40;99528.78;;;36.83;27.13
17230;BME280;8731;50.364;8.958;2022-08-04T15:06:03;99524.09;;;36.94;27.57
17230;BME280;8731;50.364;8.958;2022-08-04T15:10:26;99527.00;;;36.83;26.27
17230;BME280;8731;50.364;8.958;2022-08-04T15:14:48;99517.06;;;36.93;27.99
17230;BME280;8731;50.364;8.958;2022-08-04T15:19:12;99514.50;;;36.88;27.18
17230;BME280;8731;50.364;8.958;2022-08-04T15:23:35;99515.31;;;36.53;28.31
17230;BME280;8731;50.364;8.958;2022-08-04T15:27:58;99517.75;;;36.63;27.18
17230;BME280;8731;50.364;8.958;2022-08-04T15:32:22;99516.75;;;36.68;27.39
17230;BME280;8731;50.364;8.958;2022-08-04T15:36:51;99518.47;;;36.71;28.30
17230;BME280;8731;50.364;8.958;2022-08-04T15:41:21;99507.38;;;36.53;26.39
17230;BME280;8731;50.364;8.958;2022-08-04T15:45:51;99503.31;;;36.74;27.42
17230;BME280;8731;50.364;8.958;2022-08-04T15:50:15;99498.34;;;36.61;25.95
17230;BME280;8731;50.364;8.958;2022-08-04T15:54:39;99487.09;;;36.51;25.79
17230;BME280;8731;50.364;8.958;2022-08-04T15:59:02;99483.41;;;36.56;25.87
17230;BME280;8731;50.364;8.958;2022-08-04T16:03:40;99485.97;;;36.59;26.25
17230;BME280;8731;50.364;8.958;2022-08-04T16:08:14;99485.13;;;36.59;26.35
17230;BME280;8731;50.364;8.958;2022-08-04T16:13:03;99480.47;;;36.69;25.61
17230;BME280;8731;50.364;8.958;2022-08-04T16:17:27;99481.22;;;36.74;25.54
17230;BME280;8731;50.364;8.958;2022-08-04T16:22:01;99480.97;;;36.84;25.96
17230;BME280;8731;50.364;8.958;2022-08-04T16:26:48;99479.56;;;36.70;26.63
17230;BME280;8731;50.364;8.958;2022-08-04T16:31:14;99470.06;;;36.59;25.58
17230;BME280;8731;50.364;8.958;2022-08-04T16:35:36;99472.31;;;36.39;25.72
17230;BME280;8731;50.364;8.958;2022-08-04T16:40:25;99466.13;;;36.76;26.73
17230;BME280;8731;50.364;8.958;2022-08-04T16:44:58;99464.19;;;36.47;26.55
17230;BME280;8731;50.364;8.958;2022-08-04T16:49:23;99462.97;;;36.23;26.48
17230;BME280;8731;50.364;8.958;2022-08-04T16:53:46;99455.28;;;36.49;26.19
17230;BME280;8731;50.364;8.958;2022-08-04T16:58:09;99456.31;;;36.44;26.21
17230;BME280;8731;50.364;8.958;2022-08-04T17:02:32;99456.13;;;36.51;26.43
17230;BME280;8731;50.364;8.958;2022-08-04T17:07:00;99450.09;;;36.45;25.72
17230;BME280;8731;50.364;8.958;2022-08-04T17:11:30;99449.19;;;36.46;25.86
17230;BME280;8731;50.364;8.958;2022-08-04T17:15:54;99449.53;;;36.68;26.98
17230;BME280;8731;50.364;8.958;2022-08-04T17:20:25;99449.59;;;36.65;27.07
17230;BME280;8731;50.364;8.958;2022-08-04T17:24:49;99445.44;;;36.54;26.46
17230;BME280;8731;50.364;8.958;2022-08-04T17:29:11;99449.19;;;36.46;26.32
17230;BME280;8731;50.364;8.958;2022-08-04T17:33:34;99443.06;;;36.44;26.40
17230;BME280;8731;50.364;8.958;2022-08-04T17:37:57;99443.69;;;36.53;27.54
17230;BME280;8731;50.364;8.958;2022-08-04T17:42:28;99444.78;;;36.45;27.65
17230;BME280;8731;50.364;8.958;2022-08-04T17:46:53;99444.53;;;36.17;26.65
17230;BME280;8731;50.364;8.958;2022-08-04T17:51:16;99441.03;;;36.15;28.62
17230;BME280;8731;50.364;8.958;2022-08-04T17:55:40;99448.53;;;35.97;27.42
17230;BME280;8731;50.364;8.958;2022-08-04T18:00:07;99440.81;;;35.85;29.05
17230;BME280;8731;50.364;8.958;2022-08-04T18:04:38;99443.84;;;35.65;28.32
17230;BME280;8731;50.364;8.958;2022-08-04T18:09:10;99441.53;;;35.50;29.26
17230;BME280;8731;50.364;8.958;2022-08-04T18:13:33;99441.66;;;35.44;29.73
17230;BME280;8731;50.364;8.958;2022-08-04T18:17:57;99450.91;;;35.20;29.70
17230;BME280;8731;50.364;8.958;2022-08-04T18:22:20;99440.72;;;34.99;31.04
17230;BME280;8731;50.364;8.958;2022-08-04T18:26:42;99450.56;;;34.91;31.01
17230;BME280;8731;50.364;8.958;2022-08-04T18:31:05;99452.56;;;34.75;31.64
17230;BME280;8731;50.364;8.958;2022-08-04T18:35:29;99452.94;;;34.52;31.73
17230;BME280;8731;50.364;8.958;2022-08-04T18:39:55;99460.31;;;34.32;30.96
17230;BME280;8731;50.364;8.958;2022-08-04T18:44:17;99461.38;;;34.18;30.82
17230;BME280;8731;50.364;8.958;2022-08-04T18:48:42;99465.31;;;33.90;31.76
17230;BME280;8731;50.364;8.958;2022-08-04T18:53:06;99474.16;;;33.83;32.18
17230;BME280;8731;50.364;8.958;2022-08-04T18:57:29;99487.03;;;33.38;30.28
17230;BME280;8731;50.364;8.958;2022-08-04T19:01:51;99487.16;;;33.21;30.78
17230;BME280;8731;50.364;8.958;2022-08-04T19:06:14;99494.16;;;33.24;30.85
17230;BME280;8731;50.364;8.958;2022-08-04T19:10:37;99486.31;;;33.18;31.41
17230;BME280;8731;50.364;8.958;2022-08-04T19:15:00;99496.19;;;32.97;31.76
17230;BME280;8731;50.364;8.958;2022-08-04T19:19:22;99505.84;;;32.99;31.80
17230;BME280;8731;50.364;8.958;2022-08-04T19:23:44;99516.53;;;32.80;31.41
17230;BME280;8731;50.364;8.958;2022-08-04T19:28:08;99508.66;;;32.74;32.36
17230;BME280;8731;50.364;8.958;2022-08-04T19:32:30;99522.88;;;32.53;33.02
17230;BME280;8731;50.364;8.958;2022-08-04T19:36:53;99529.03;;;32.51;33.15
17230;BME280;8731;50.364;8.958;2022-08-04T19:41:15;99534.34;;;32.45;33.03
17230;BME280;8731;50.364;8.958;2022-08-04T19:45:39;99537.91;;;32.34;33.50
17230;BME280;8731;50.364;8.958;2022-08-04T19:50:02;99542.34;;;32.31;33.69
17230;BME280;8731;50.364;8.958;2022-08-04T19:54:26;99537.97;;;32.19;34.35
17230;BME280;8731;50.364;8.958;2022-08-04T19:58:48;99540.69;;;32.04;34.34
17230;BME280;8731;50.364;8.958;2022-08-04T20:03:12;99535.47;;;31.87;34.36
17230;BME280;8731;50.364;8.958;2022-08-04T20:07:34;99536.44;;;31.51;35.34
17230;BME280;8731;50.364;8.958;2022-08-04T20:11:57;99530.25;;;31.60;34.96
17230;BME280;8731;50.364;8.958;2022-08-04T20:16:19;99546.94;;;31.45;34.85
17230;BME280;8731;50.364;8.958;2022-08-04T20:20:43;99561.88;;;31.05;35.91
17230;BME280;8731;50.364;8.958;2022-08-04T20:25:06;99554.88;;;31.19;34.85
17230;BME280;8731;50.364;8.958;2022-08-04T20:29:29;99551.34;;;30.99;35.60
17230;BME280;8731;50.364;8.958;2022-08-04T20:33:52;99560.09;;;30.93;36.05
17230;BME280;8731;50.364;8.958;2022-08-04T20:38:15;99565.38;;;30.93;36.81
17230;BME280;8731;50.364;8.958;2022-08-04T20:42:38;99561.00;;;30.83;37.57
17230;BME280;8731;50.364;8.958;2022-08-04T20:47:00;99551.34;;;30.85;37.44
17230;BME280;8731;50.364;8.958;2022-08-04T20:51:22;99567.13;;;30.82;37.73
17230;BME280;8731;50.364;8.958;2022-08-04T20:55:46;99560.97;;;30.74;37.01
17230;BME280;8731;50.364;8.958;2022-08-04T21:00:10;99563.59;;;30.63;39.43
17230;BME280;8731;50.364;8.958;2022-08-04T21:04:33;99564.47;;;30.70;39.03
17230;BME280;8731;50.364;8.958;2022-08-04T21:08:57;99569.63;;;30.51;39.65
17230;BME280;8731;50.364;8.958;2022-08-04T21:13:21;99564.38;;;30.42;39.75
17230;BME280;8731;50.364;8.958;2022-08-04T21:17:43;99552.16;;;30.53;38.79
17230;BME280;8731;50.364;8.958;2022-08-04T21:22:05;99562.63;;;30.43;39.61
17230;BME280;8731;50.364;8.958;2022-08-04T21:26:28;99555.63;;;30.43;39.03
17230;BME280;8731;50.364;8.958;2022-08-04T21:30:51;99556.50;;;30.41;40.37
17230;BME280;8731;50.364;8.958;2022-08-04T21:35:14;99562.63;;;30.41;40.16
17230;BME280;8731;50.364;8.958;2022-08-04T21:39:37;99567.88;;;30.38;40.06
17230;BME280;8731;50.364;8.958;2022-08-04T21:44:00;99564.34;;;30.33;40.22
17230;BME280;8731;50.364;8.958;2022-08-04T21:48:23;99567.81;;;30.26;40.34
17230;BME280;8731;50.364;8.958;2022-08-04T21:52:46;99559.91;;;30.15;41.13
17230;BME280;8731;50.364;8.958;2022-08-04T21:57:09;99566.03;;;30.10;41.15
17230;BME280;8731;50.364;8.958;2022-08-04T22:01:32;99561.63;;;30.07;41.85
17230;BME280;8731;50.364;8.958;2022-08-04T22:05:56;99574.69;;;29.98;42.07
17230;BME280;8731;50.364;8.958;2022-08-04T22:10:19;99572.03;;;29.92;42.11
17230;BME280;8731;50.364;8.958;2022-08-04T22:14:41;99576.38;;;29.84;41.89
17230;BME280;8731;50.364;8.958;2022-08-04T22:19:04;99572.81;;;29.77;42.39
17230;BME280;8731;50.364;8.958;2022-08-04T22:23:28;99578.91;;;29.73;42.00
17230;BME280;8731;50.364;8.958;2022-08-04T22:27:50;99568.41;;;29.73;42.58
17230;BME280;8731;50.364;8.958;2022-08-04T22:32:22;99572.75;;;29.65;42.70
17230;BME280;8731;50.364;8.958;2022-08-04T22:36:45;99570.06;;;29.56;43.28
17230;BME280;8731;50.364;8.958;2022-08-04T22:41:10;99568.28;;;29.55;43.34
17230;BME280;8731;50.364;8.958;2022-08-04T22:45:33;99563.88;;;29.45;43.16
17230;BME280;8731;50.364;8.958;2022-08-04T22:49:55;99558.50;;;29.32;44.06
17230;BME280;8731;50.364;8.958;2022-08-04T22:54:17;99560.19;;;29.24;44.30
17230;BME280;8731;50.364;8.958;2022-08-04T22:58:43;99581.09;;;29.15;44.51
17230;BME280;8731;50.364;8.958;2022-08-04T23:03:06;99580.88;;;28.88;44.93
17230;BME280;8731;50.364;8.958;2022-08-04T23:07:29;99577.19;;;28.72;46.12
17230;BME280;8731;50.364;8.958;2022-08-04T23:11:51;99585.66;;;28.48;46.88
17230;BME280;8731;50.364;8.958;2022-08-04T23:16:15;99581.19;;;28.39;46.27
17230;BME280;8731;50.364;8.958;2022-08-04T23:20:38;99581.94;;;28.31;47.98
17230;BME280;8731;50.364;8.958;2022-08-04T23:25:00;99593.09;;;28.16;48.02
17230;BME280;8731;50.364;8.958;2022-08-04T23:29:22;99592.19;;;28.14;47.82
17230;BME280;8731;50.364;8.958;2022-08-04T23:33:46;99590.22;;;27.96;48.90
17230;BME280;8731;50.364;8.958;2022-08-04T23:38:09;99594.50;;;27.91;49.53
17230;BME280;8731;50.364;8.958;2022-08-04T23:42:31;99605.78;;;27.87;49.20
17230;BME280;8731;50.364;8.958;2022-08-04T23:46:57;99609.25;;;27.86;47.31
17230;BME280;8731;50.364;8.958;2022-08-04T23:51:22;99613.34;;;27.67;49.03
17230;BME280;8731;50.364;8.958;2022-08-04T23:55:44;99626.28;;;27.60;50.14
